テルアビブ / ベン・グリオン の空港の天気 - METARとTAF

ベン・グリオン国際空港(テルアビブ) ( LLBG / TLV ) - イスラエル ロード / テルアビブ
飛行場実況気象(Metar)
観測時間06/25 16:20 IDT (06/25 13:20 UTC)
風向・風速西北西 6m/s
視程10km以上
天気現象
なし
気温29℃
湿度55%
気圧1009hPa
METARLLBG 251320Z 30012KT CAVOK 29/19 Q1009 NOSIG
過去の天気等 Google飛行場航空写真 Wunderground天気予報

過去48時間のMETAR

飛行場予報(TAF)
発表時間: 6/25 14:07 IDT (6/25 11:07 UTC)
予報対象時間: 25日15時 IDT ~ 26日15時 IDT
風向・風速西北西 5m/s
視程10km以上
少しの雲 雲底高度 1070m
25日17時 IDT ~ 25日19時 IDT に徐々に
風向・風速北 3m/s
全天の4割程度の雲 雲底高度 760m
26日0時 IDT ~ 26日2時 IDT に徐々に
風向・風速東南東 2m/s
26日10時 IDT ~ 26日12時 IDT に徐々に
風向・風速北西 5m/s
視程10km以上
少しの雲 雲底高度 910m
TAF LLBG 251107Z 2512/2612 30010KT 9999 FEW035
BECMG 2514/2516 35005KT SCT025
BECMG 2521/2523 12003KT
BECMG 2607/2609 32010KT 9999 FEW030 TX31/2512Z TN23/2603Z